EXS84GV ENBR-EGCC
Flight info
| Callsign | EXS84GV |
|---|---|
| Flight time | 1h 23m |
| Altitude | 36000 |
| Route | EPOTU DCT KLONN DCT TILNI |
| Aircraft | B738/M-SDE2E3FGHIRWXY/LB1 |
Departure
| Time | 2026-04-30 19:26 |
|---|---|
| Airport | Bergen Airport, Flesland (ENBR) |
Arrival
| Time | 2026-04-30 20:49 |
|---|---|
| Airport | Manchester Airport (EGCC) |
| Time | Latitude | Longitude | Altitude | Speed | Heading |
|---|---|---|---|---|---|
| 2026-04-30 18:57 | 60.28823 | 5.22597 | 173 ft | 0 kts | 33° |
| 2026-04-30 19:15 | 60.28816 | 5.22588 | 173 ft | 4 kts | 33° |
| 2026-04-30 19:16 | 60.28793 | 5.22558 | 173 ft | 4 kts | 31° |
| 2026-04-30 19:16 | 60.28770 | 5.22531 | 173 ft | 4 kts | 31° |
| 2026-04-30 19:16 | 60.28728 | 5.22485 | 173 ft | 4 kts | 14° |
| 2026-04-30 19:17 | 60.28701 | 5.22478 | 173 ft | 4 kts | 354° |
| 2026-04-30 19:17 | 60.28691 | 5.22481 | 173 ft | 1 kts | 347° |
| 2026-04-30 19:20 | 60.28692 | 5.22481 | 173 ft | 1 kts | 347° |
| 2026-04-30 19:20 | 60.28737 | 5.22463 | 173 ft | 12 kts | 352° |
| 2026-04-30 19:20 | 60.28855 | 5.22303 | 173 ft | 11 kts | 342° |
| 2026-04-30 19:21 | 60.28946 | 5.22271 | 173 ft | 16 kts | 350° |
| 2026-04-30 19:21 | 60.29230 | 5.22178 | 177 ft | 24 kts | 350° |
| 2026-04-30 19:22 | 60.29621 | 5.22046 | 169 ft | 34 kts | 351° |
| 2026-04-30 19:22 | 60.30205 | 5.21859 | 168 ft | 15 kts | 348° |
| 2026-04-30 19:23 | 60.30505 | 5.21761 | 172 ft | 14 kts | 349° |
| 2026-04-30 19:24 | 60.30666 | 5.21638 | 177 ft | 13 kts | 285° |
| 2026-04-30 19:24 | 60.30656 | 5.21465 | 178 ft | 12 kts | 252° |
| 2026-04-30 19:24 | 60.30535 | 5.21425 | 173 ft | 3 kts | 171° |
| 2026-04-30 19:25 | 60.28797 | 5.22023 | 376 ft | 179 kts | 169° |
| 2026-04-30 19:26 | 60.26484 | 5.22744 | 2805 ft | 168 kts | 173° |
| 2026-04-30 19:26 | 60.23773 | 5.23584 | 3474 ft | 221 kts | 173° |
| 2026-04-30 19:26 | 60.22217 | 5.24090 | 3992 ft | 231 kts | 173° |
| 2026-04-30 19:27 | 60.18884 | 5.25208 | 5038 ft | 258 kts | 174° |
| 2026-04-30 19:27 | 60.15289 | 5.26445 | 6842 ft | 264 kts | 174° |
| 2026-04-30 19:28 | 60.13467 | 5.27072 | 7724 ft | 267 kts | 175° |
| 2026-04-30 19:28 | 60.09776 | 5.27908 | 9453 ft | 267 kts | 195° |
| 2026-04-30 19:29 | 60.06588 | 5.24467 | 11033 ft | 271 kts | 218° |
| 2026-04-30 19:29 | 60.05019 | 5.22048 | 11212 ft | 298 kts | 219° |
| 2026-04-30 19:30 | 59.99833 | 5.13929 | 13179 ft | 321 kts | 218° |
| 2026-04-30 19:30 | 59.98119 | 5.11286 | 14002 ft | 323 kts | 218° |
| 2026-04-30 19:31 | 59.94502 | 5.05753 | 15380 ft | 331 kts | 218° |
| 2026-04-30 19:31 | 59.93284 | 5.03899 | 15828 ft | 334 kts | 218° |
| 2026-04-30 19:31 | 59.89546 | 4.98229 | 17162 ft | 342 kts | 218° |
| 2026-04-30 19:32 | 59.87640 | 4.95348 | 17827 ft | 346 kts | 219° |
| 2026-04-30 19:32 | 59.85712 | 4.92435 | 18479 ft | 350 kts | 219° |
| 2026-04-30 19:32 | 59.83764 | 4.89499 | 19070 ft | 354 kts | 219° |
| 2026-04-30 19:32 | 59.81791 | 4.86529 | 19647 ft | 357 kts | 219° |
| 2026-04-30 19:33 | 59.79797 | 4.83531 | 20212 ft | 361 kts | 219° |
| 2026-04-30 19:33 | 59.77784 | 4.80510 | 20706 ft | 366 kts | 219° |
| 2026-04-30 19:33 | 59.75740 | 4.77446 | 21233 ft | 370 kts | 219° |
| 2026-04-30 19:33 | 59.73679 | 4.74365 | 21797 ft | 373 kts | 219° |
| 2026-04-30 19:34 | 59.71599 | 4.71260 | 22323 ft | 376 kts | 219° |
| 2026-04-30 19:34 | 59.69499 | 4.68129 | 22860 ft | 380 kts | 219° |
| 2026-04-30 19:34 | 59.65233 | 4.61785 | 23871 ft | 387 kts | 219° |
| 2026-04-30 19:35 | 59.63071 | 4.58578 | 24310 ft | 390 kts | 219° |
| 2026-04-30 19:35 | 59.60891 | 4.55349 | 24759 ft | 392 kts | 218° |
| 2026-04-30 19:35 | 59.58711 | 4.52127 | 25306 ft | 392 kts | 218° |
| 2026-04-30 19:35 | 59.56549 | 4.48935 | 25719 ft | 394 kts | 218° |
| 2026-04-30 19:36 | 59.54313 | 4.45641 | 26085 ft | 398 kts | 218° |
| 2026-04-30 19:36 | 59.52114 | 4.42405 | 26441 ft | 401 kts | 218° |
| 2026-04-30 19:36 | 59.47594 | 4.35771 | 27131 ft | 408 kts | 218° |
| 2026-04-30 19:37 | 59.45314 | 4.32433 | 27559 ft | 410 kts | 218° |
| 2026-04-30 19:37 | 59.43018 | 4.29079 | 27958 ft | 412 kts | 218° |
| 2026-04-30 19:37 | 59.40714 | 4.25719 | 28309 ft | 414 kts | 218° |
| 2026-04-30 19:37 | 59.38392 | 4.22338 | 28642 ft | 417 kts | 218° |
| 2026-04-30 19:38 | 59.36053 | 4.18939 | 28993 ft | 420 kts | 218° |
| 2026-04-30 19:38 | 59.33700 | 4.15524 | 29362 ft | 421 kts | 218° |
| 2026-04-30 19:38 | 59.31340 | 4.12107 | 29693 ft | 424 kts | 218° |
| 2026-04-30 19:38 | 59.28961 | 4.08668 | 30004 ft | 426 kts | 218° |
| 2026-04-30 19:39 | 59.26571 | 4.05217 | 30306 ft | 428 kts | 218° |
| 2026-04-30 19:39 | 59.24166 | 4.01753 | 30585 ft | 430 kts | 217° |
| 2026-04-30 19:39 | 59.21747 | 3.98274 | 30836 ft | 433 kts | 217° |
| 2026-04-30 19:39 | 59.19329 | 3.94804 | 31232 ft | 431 kts | 217° |
| 2026-04-30 19:40 | 59.16929 | 3.91366 | 31760 ft | 426 kts | 218° |
| 2026-04-30 19:40 | 59.14553 | 3.87970 | 32256 ft | 422 kts | 218° |
| 2026-04-30 19:40 | 59.12182 | 3.84587 | 32587 ft | 422 kts | 218° |
| 2026-04-30 19:40 | 59.09812 | 3.81207 | 32895 ft | 422 kts | 217° |
| 2026-04-30 19:41 | 59.07453 | 3.77850 | 33389 ft | 418 kts | 217° |
| 2026-04-30 19:41 | 59.05122 | 3.74539 | 33916 ft | 413 kts | 218° |
| 2026-04-30 19:41 | 59.02804 | 3.71253 | 34261 ft | 413 kts | 218° |
| 2026-04-30 19:41 | 59.00481 | 3.67964 | 34457 ft | 415 kts | 218° |
| 2026-04-30 19:42 | 58.98173 | 3.64700 | 34682 ft | 416 kts | 217° |
| 2026-04-30 19:42 | 58.95807 | 3.61361 | 34961 ft | 415 kts | 217° |
| 2026-04-30 19:42 | 58.93476 | 3.58077 | 35210 ft | 415 kts | 217° |
| 2026-04-30 19:42 | 58.91135 | 3.54785 | 35416 ft | 416 kts | 217° |
| 2026-04-30 19:43 | 58.88827 | 3.51546 | 35661 ft | 416 kts | 217° |
| 2026-04-30 19:43 | 58.86484 | 3.48263 | 35947 ft | 415 kts | 217° |
| 2026-04-30 19:43 | 58.84150 | 3.44999 | 36199 ft | 415 kts | 217° |
| 2026-04-30 19:44 | 58.79459 | 3.38454 | 36586 ft | 417 kts | 217° |
| 2026-04-30 19:44 | 58.77114 | 3.35190 | 36859 ft | 416 kts | 217° |
| 2026-04-30 19:44 | 58.74771 | 3.31936 | 37120 ft | 415 kts | 217° |
| 2026-04-30 19:44 | 58.72426 | 3.28683 | 37310 ft | 416 kts | 217° |
| 2026-04-30 19:45 | 58.70077 | 3.25430 | 37471 ft | 417 kts | 217° |
| 2026-04-30 19:45 | 58.67724 | 3.22178 | 37711 ft | 416 kts | 217° |
| 2026-04-30 19:45 | 58.65378 | 3.18940 | 37983 ft | 415 kts | 217° |
| 2026-04-30 19:45 | 58.63031 | 3.15707 | 38187 ft | 415 kts | 217° |
| 2026-04-30 19:46 | 58.60682 | 3.12476 | 38327 ft | 416 kts | 217° |
| 2026-04-30 19:46 | 58.55997 | 3.06047 | 38365 ft | 414 kts | 217° |
| 2026-04-30 19:47 | 58.51323 | 2.99656 | 38377 ft | 414 kts | 217° |
| 2026-04-30 19:47 | 58.46632 | 2.93261 | 38388 ft | 415 kts | 217° |
| 2026-04-30 19:48 | 58.41932 | 2.86873 | 38386 ft | 415 kts | 217° |
| 2026-04-30 19:48 | 58.37223 | 2.80483 | 38398 ft | 416 kts | 217° |
| 2026-04-30 19:49 | 58.32526 | 2.74020 | 38409 ft | 416 kts | 217° |
| 2026-04-30 19:49 | 58.25475 | 2.64314 | 38393 ft | 418 kts | 217° |
| 2026-04-30 19:50 | 58.20761 | 2.57863 | 38409 ft | 418 kts | 217° |
| 2026-04-30 19:50 | 58.16070 | 2.51468 | 38388 ft | 418 kts | 217° |
| 2026-04-30 19:51 | 58.11319 | 2.45016 | 38405 ft | 417 kts | 217° |
| 2026-04-30 19:51 | 58.06633 | 2.38674 | 38388 ft | 416 kts | 216° |
| 2026-04-30 19:52 | 58.01935 | 2.32336 | 38385 ft | 414 kts | 216° |
| 2026-04-30 19:52 | 57.97249 | 2.26037 | 38386 ft | 413 kts | 216° |
| 2026-04-30 19:53 | 57.92585 | 2.19786 | 38393 ft | 411 kts | 216° |
| 2026-04-30 19:53 | 57.87936 | 2.13575 | 38384 ft | 409 kts | 216° |
| 2026-04-30 19:54 | 57.83301 | 2.07403 | 38383 ft | 408 kts | 216° |
| 2026-04-30 19:54 | 57.78669 | 2.01255 | 38385 ft | 407 kts | 216° |
| 2026-04-30 19:55 | 57.74046 | 1.95138 | 38389 ft | 407 kts | 216° |
| 2026-04-30 19:55 | 57.69412 | 1.89026 | 38384 ft | 408 kts | 216° |
| 2026-04-30 19:56 | 57.64768 | 1.82921 | 38381 ft | 409 kts | 216° |
| 2026-04-30 19:56 | 57.60112 | 1.76818 | 38394 ft | 409 kts | 215° |
| 2026-04-30 19:57 | 57.55437 | 1.70710 | 38375 ft | 411 kts | 215° |
| 2026-04-30 19:57 | 57.50751 | 1.64610 | 38382 ft | 411 kts | 215° |
| 2026-04-30 19:58 | 57.46055 | 1.58514 | 38378 ft | 412 kts | 215° |
| 2026-04-30 19:58 | 57.41348 | 1.52425 | 38377 ft | 412 kts | 215° |
| 2026-04-30 19:59 | 57.36637 | 1.46349 | 38369 ft | 413 kts | 215° |
| 2026-04-30 20:00 | 57.29565 | 1.37266 | 38376 ft | 412 kts | 215° |
| 2026-04-30 20:00 | 57.24846 | 1.31229 | 38370 ft | 412 kts | 215° |
| 2026-04-30 20:01 | 57.17769 | 1.22210 | 38370 ft | 412 kts | 215° |
| 2026-04-30 20:01 | 57.13045 | 1.16211 | 38378 ft | 412 kts | 214° |
| 2026-04-30 20:02 | 57.05994 | 1.07295 | 38361 ft | 411 kts | 214° |
| 2026-04-30 20:03 | 56.98845 | 0.98299 | 38377 ft | 418 kts | 214° |
| 2026-04-30 20:03 | 56.94031 | 0.92265 | 38358 ft | 425 kts | 214° |
| 2026-04-30 20:04 | 56.89122 | 0.86131 | 38356 ft | 429 kts | 214° |
| 2026-04-30 20:05 | 56.81700 | 0.76897 | 38354 ft | 431 kts | 214° |
| 2026-04-30 20:05 | 56.74250 | 0.67672 | 38347 ft | 432 kts | 214° |
| 2026-04-30 20:06 | 56.69277 | 0.61540 | 38340 ft | 431 kts | 214° |
| 2026-04-30 20:06 | 56.64310 | 0.55432 | 38361 ft | 430 kts | 213° |
| 2026-04-30 20:07 | 56.59360 | 0.49365 | 38358 ft | 428 kts | 213° |
| 2026-04-30 20:08 | 56.51962 | 0.40338 | 38335 ft | 427 kts | 213° |
| 2026-04-30 20:08 | 56.47039 | 0.34353 | 38347 ft | 426 kts | 213° |
| 2026-04-30 20:09 | 56.42119 | 0.28392 | 38330 ft | 426 kts | 213° |
| 2026-04-30 20:09 | 56.34744 | 0.19490 | 38323 ft | 425 kts | 213° |
| 2026-04-30 20:10 | 56.27362 | 0.10624 | 38316 ft | 425 kts | 213° |
| 2026-04-30 20:11 | 56.19964 | 0.01779 | 38324 ft | 426 kts | 213° |
| 2026-04-30 20:11 | 56.15017 | -0.04113 | 38335 ft | 427 kts | 212° |
| 2026-04-30 20:12 | 56.07576 | -0.12940 | 38319 ft | 428 kts | 212° |
| 2026-04-30 20:13 | 56.02609 | -0.18809 | 38331 ft | 428 kts | 212° |
| 2026-04-30 20:13 | 55.97634 | -0.24668 | 38309 ft | 428 kts | 212° |
| 2026-04-30 20:14 | 55.92658 | -0.30511 | 38324 ft | 428 kts | 212° |
| 2026-04-30 20:14 | 55.87687 | -0.36330 | 38320 ft | 428 kts | 212° |
| 2026-04-30 20:15 | 55.82709 | -0.42138 | 38308 ft | 428 kts | 212° |
| 2026-04-30 20:15 | 55.77733 | -0.47927 | 38298 ft | 427 kts | 212° |
| 2026-04-30 20:16 | 55.72755 | -0.53700 | 38299 ft | 427 kts | 212° |
| 2026-04-30 20:16 | 55.67779 | -0.59452 | 38312 ft | 427 kts | 212° |
| 2026-04-30 20:17 | 55.62795 | -0.65197 | 38300 ft | 428 kts | 212° |
| 2026-04-30 20:17 | 55.57806 | -0.70930 | 38302 ft | 428 kts | 212° |
| 2026-04-30 20:18 | 55.53658 | -0.75682 | 38315 ft | 428 kts | 212° |
| 2026-04-30 20:18 | 55.47852 | -0.82314 | 38303 ft | 428 kts | 212° |
| 2026-04-30 20:19 | 55.42846 | -0.88013 | 38296 ft | 429 kts | 212° |
| 2026-04-30 20:19 | 55.37830 | -0.93707 | 38298 ft | 429 kts | 212° |
| 2026-04-30 20:20 | 55.33629 | -0.98461 | 38296 ft | 429 kts | 212° |
| 2026-04-30 20:20 | 55.28603 | -1.04135 | 38288 ft | 430 kts | 212° |
| 2026-04-30 20:21 | 55.23606 | -1.09757 | 38294 ft | 430 kts | 211° |
| 2026-04-30 20:21 | 55.18567 | -1.15408 | 38296 ft | 431 kts | 211° |
| 2026-04-30 20:22 | 55.13518 | -1.21056 | 38280 ft | 431 kts | 211° |
| 2026-04-30 20:22 | 55.08459 | -1.26697 | 38282 ft | 431 kts | 211° |
| 2026-04-30 20:23 | 55.03395 | -1.32327 | 38262 ft | 432 kts | 211° |
| 2026-04-30 20:23 | 55.00859 | -1.35139 | 38040 ft | 435 kts | 211° |
| 2026-04-30 20:23 | 54.98289 | -1.37986 | 37364 ft | 437 kts | 211° |
| 2026-04-30 20:23 | 54.95742 | -1.40804 | 37015 ft | 431 kts | 211° |
| 2026-04-30 20:24 | 54.93207 | -1.43604 | 36247 ft | 432 kts | 210° |
| 2026-04-30 20:24 | 54.90694 | -1.46376 | 35778 ft | 425 kts | 210° |
| 2026-04-30 20:24 | 54.88179 | -1.49143 | 35065 ft | 426 kts | 210° |
| 2026-04-30 20:24 | 54.85693 | -1.51877 | 34379 ft | 425 kts | 210° |
| 2026-04-30 20:25 | 54.80722 | -1.57326 | 32920 ft | 425 kts | 210° |
| 2026-04-30 20:25 | 54.78222 | -1.60060 | 32344 ft | 428 kts | 210° |
| 2026-04-30 20:26 | 54.73124 | -1.65623 | 30780 ft | 438 kts | 209° |
| 2026-04-30 20:26 | 54.67997 | -1.71207 | 29280 ft | 435 kts | 209° |
| 2026-04-30 20:26 | 54.65437 | -1.73989 | 28595 ft | 436 kts | 209° |
| 2026-04-30 20:27 | 54.60241 | -1.79620 | 27470 ft | 445 kts | 209° |
| 2026-04-30 20:27 | 54.54787 | -1.84654 | 26231 ft | 443 kts | 195° |
| 2026-04-30 20:28 | 54.48844 | -1.87352 | 25030 ft | 441 kts | 191° |
| 2026-04-30 20:28 | 54.42873 | -1.89324 | 23802 ft | 430 kts | 188° |
| 2026-04-30 20:29 | 54.37053 | -1.91074 | 22498 ft | 422 kts | 188° |
| 2026-04-30 20:30 | 54.28431 | -1.93738 | 20730 ft | 418 kts | 189° |
| 2026-04-30 20:30 | 54.19978 | -1.97067 | 18977 ft | 419 kts | 202° |
| 2026-04-30 20:31 | 54.12299 | -2.03781 | 17185 ft | 402 kts | 200° |
| 2026-04-30 20:32 | 54.04564 | -2.08616 | 15543 ft | 391 kts | 198° |
| 2026-04-30 20:32 | 53.99538 | -2.11973 | 14472 ft | 385 kts | 200° |
| 2026-04-30 20:33 | 53.97104 | -2.13671 | 13904 ft | 382 kts | 200° |
| 2026-04-30 20:33 | 53.92210 | -2.17131 | 12774 ft | 375 kts | 200° |
| 2026-04-30 20:33 | 53.89846 | -2.18805 | 12260 ft | 372 kts | 200° |
| 2026-04-30 20:34 | 53.85089 | -2.22164 | 11223 ft | 369 kts | 200° |
| 2026-04-30 20:34 | 53.80358 | -2.25491 | 10200 ft | 367 kts | 201° |
| 2026-04-30 20:35 | 53.78004 | -2.27144 | 9655 ft | 366 kts | 201° |
| 2026-04-30 20:35 | 53.75652 | -2.28794 | 9106 ft | 365 kts | 201° |
| 2026-04-30 20:35 | 53.70989 | -2.32061 | 8060 ft | 361 kts | 201° |
| 2026-04-30 20:36 | 53.68689 | -2.33692 | 7568 ft | 358 kts | 201° |
| 2026-04-30 20:36 | 53.66426 | -2.35397 | 7142 ft | 354 kts | 202° |
| 2026-04-30 20:36 | 53.62129 | -2.38763 | 6739 ft | 322 kts | 206° |
| 2026-04-30 20:37 | 53.60299 | -2.40723 | 6552 ft | 302 kts | 213° |
| 2026-04-30 20:37 | 53.58671 | -2.42779 | 6378 ft | 283 kts | 214° |
| 2026-04-30 20:37 | 53.57160 | -2.44738 | 6218 ft | 267 kts | 215° |
| 2026-04-30 20:37 | 53.55735 | -2.46598 | 6066 ft | 252 kts | 215° |
| 2026-04-30 20:38 | 53.54392 | -2.48359 | 5948 ft | 237 kts | 215° |
| 2026-04-30 20:38 | 53.53124 | -2.50030 | 5820 ft | 228 kts | 215° |
| 2026-04-30 20:38 | 53.51880 | -2.51667 | 5544 ft | 228 kts | 215° |
| 2026-04-30 20:39 | 53.49439 | -2.54855 | 5292 ft | 220 kts | 215° |
| 2026-04-30 20:39 | 53.48219 | -2.56434 | 5089 ft | 221 kts | 215° |
| 2026-04-30 20:39 | 53.46998 | -2.58004 | 4833 ft | 222 kts | 214° |
| 2026-04-30 20:40 | 53.44542 | -2.61129 | 4302 ft | 219 kts | 208° |
| 2026-04-30 20:40 | 53.43120 | -2.61903 | 4021 ft | 216 kts | 181° |
| 2026-04-30 20:40 | 53.41642 | -2.61920 | 3869 ft | 211 kts | 179° |
| 2026-04-30 20:41 | 53.38705 | -2.62049 | 3392 ft | 210 kts | 180° |
| 2026-04-30 20:41 | 53.37250 | -2.62073 | 3142 ft | 209 kts | 171° |
| 2026-04-30 20:41 | 53.35912 | -2.61276 | 3029 ft | 201 kts | 149° |
| 2026-04-30 20:41 | 53.34769 | -2.60061 | 3016 ft | 190 kts | 148° |
| 2026-04-30 20:42 | 53.33691 | -2.58948 | 3013 ft | 174 kts | 149° |
| 2026-04-30 20:42 | 53.32694 | -2.57943 | 2999 ft | 160 kts | 150° |
| 2026-04-30 20:42 | 53.30920 | -2.56153 | 2994 ft | 146 kts | 150° |
| 2026-04-30 20:43 | 53.30055 | -2.55261 | 3010 ft | 145 kts | 150° |
| 2026-04-30 20:43 | 53.29200 | -2.54371 | 3000 ft | 144 kts | 150° |
| 2026-04-30 20:43 | 53.28359 | -2.53487 | 3018 ft | 141 kts | 150° |
| 2026-04-30 20:44 | 53.26808 | -2.51498 | 2982 ft | 148 kts | 125° |
| 2026-04-30 20:44 | 53.26463 | -2.49836 | 3034 ft | 155 kts | 113° |
| 2026-04-30 20:44 | 53.26189 | -2.46237 | 2837 ft | 168 kts | 72° |
| 2026-04-30 20:45 | 53.27725 | -2.43355 | 2498 ft | 152 kts | 61° |
| 2026-04-30 20:45 | 53.28358 | -2.42010 | 2251 ft | 143 kts | 62° |
| 2026-04-30 20:45 | 53.28972 | -2.40723 | 2074 ft | 141 kts | 62° |
| 2026-04-30 20:46 | 53.30795 | -2.36942 | 1506 ft | 142 kts | 61° |
| 2026-04-30 20:46 | 53.31412 | -2.35667 | 1310 ft | 139 kts | 59° |
| 2026-04-30 20:47 | 53.32644 | -2.33124 | 926 ft | 138 kts | 56° |
| 2026-04-30 20:47 | 53.33229 | -2.31918 | 755 ft | 136 kts | 53° |
| 2026-04-30 20:48 | 53.34427 | -2.29413 | 353 ft | 135 kts | 47° |
| 2026-04-30 20:48 | 53.35029 | -2.28210 | 244 ft | 132 kts | 49° |
| 2026-04-30 20:48 | 53.35538 | -2.27163 | 260 ft | 96 kts | 51° |
| 2026-04-30 20:48 | 53.35845 | -2.26527 | 264 ft | 59 kts | 51° |
| 2026-04-30 20:49 | 53.36016 | -2.26176 | 258 ft | 13 kts | 50° |
| 2026-04-30 20:49 | 53.36049 | -2.26142 | 257 ft | 3 kts | 358° |
| 2026-04-30 20:49 | 53.36076 | -2.26169 | 258 ft | 6 kts | 324° |
| 2026-04-30 20:50 | 53.36141 | -2.26314 | 251 ft | 10 kts | 255° |
| 2026-04-30 20:50 | 53.36099 | -2.26412 | 251 ft | 10 kts | 232° |
| 2026-04-30 20:50 | 53.36054 | -2.26502 | 252 ft | 10 kts | 231° |
| 2026-04-30 20:50 | 53.36011 | -2.26591 | 253 ft | 10 kts | 231° |
| 2026-04-30 20:51 | 53.35969 | -2.26677 | 253 ft | 9 kts | 230° |
| 2026-04-30 20:51 | 53.35885 | -2.26872 | 252 ft | 13 kts | 236° |
| 2026-04-30 20:51 | 53.35826 | -2.27009 | 252 ft | 16 kts | 238° |
| 2026-04-30 20:52 | 53.35755 | -2.27175 | 252 ft | 18 kts | 230° |
| 2026-04-30 20:52 | 53.35671 | -2.27350 | 252 ft | 20 kts | 232° |
| 2026-04-30 20:52 | 53.35672 | -2.27591 | 246 ft | 15 kts | 322° |
| 2026-04-30 20:53 | 53.35768 | -2.27663 | 246 ft | 16 kts | 335° |
| 2026-04-30 20:53 | 53.35848 | -2.27798 | 246 ft | 17 kts | 311° |
| 2026-04-30 20:53 | 53.35961 | -2.27851 | 246 ft | 18 kts | 348° |
| 2026-04-30 20:54 | 53.36153 | -2.28145 | 246 ft | 20 kts | 316° |
| 2026-04-30 20:54 | 53.36252 | -2.28313 | 246 ft | 20 kts | 314° |
| 2026-04-30 20:54 | 53.36350 | -2.28463 | 246 ft | 16 kts | 338° |
| 2026-04-30 20:55 | 53.36525 | -2.28666 | 246 ft | 13 kts | 314° |
| 2026-04-30 20:55 | 53.36587 | -2.28796 | 246 ft | 15 kts | 297° |
| 2026-04-30 20:55 | 53.36658 | -2.28937 | 246 ft | 17 kts | 315° |
| 2026-04-30 20:56 | 53.36724 | -2.29051 | 246 ft | 5 kts | 314° |
| 2026-04-30 20:56 | 53.36762 | -2.29074 | 246 ft | 7 kts | 18° |
| 2026-04-30 20:56 | 53.36844 | -2.28994 | 246 ft | 1 kts | 116° |
| 2026-04-30 20:57 | 53.36829 | -2.28966 | 246 ft | 5 kts | 134° |
| 2026-04-30 20:57 | 53.36808 | -2.28931 | 246 ft | 4 kts | 135° |
| 2026-04-30 20:57 | 53.36800 | -2.28917 | 246 ft | 0 kts | 134° |
| 2026-04-30 20:59 | 53.36801 | -2.28918 | 246 ft | 0 kts | 135° |